createdAt,value
2023-04-11T00:01:07.801Z,9.43
2023-04-11T00:03:41.130Z,9.52
2023-04-11T00:06:11.769Z,9.45
2023-04-11T00:08:41.109Z,8.90
2023-04-11T00:11:10.034Z,9.10
2023-04-11T00:13:39.370Z,9.50
2023-04-11T00:16:10.128Z,9.82
2023-04-11T00:18:39.608Z,8.80
2023-04-11T00:21:10.661Z,9.20
2023-04-11T00:23:40.187Z,9.82
2023-04-11T00:26:09.541Z,9.27
2023-04-11T00:28:40.876Z,9.63
2023-04-11T00:31:09.960Z,9.43
2023-04-11T00:33:41.249Z,9.80
2023-04-11T00:36:12.630Z,10.43
2023-04-11T00:38:42.380Z,9.65
2023-04-11T00:41:11.393Z,9.95
2023-04-11T00:43:40.776Z,9.50
2023-04-11T00:46:10.382Z,10.07
2023-04-11T00:48:39.765Z,9.75
2023-04-11T00:51:10.654Z,8.60
2023-04-11T00:53:40.497Z,9.88
2023-04-11T00:56:11.366Z,9.02
2023-04-11T00:58:40.939Z,9.82
2023-04-11T01:01:10.314Z,9.63
2023-04-11T01:03:41.405Z,10.02
2023-04-11T01:06:14.094Z,9.10
2023-04-11T01:08:44.705Z,9.73
2023-04-11T01:13:45.767Z,10.85
2023-04-11T01:16:15.518Z,10.63
2023-04-11T01:18:44.840Z,10.45
2023-04-11T01:21:15.332Z,9.43
2023-04-11T01:23:48.855Z,10.25
2023-04-11T01:26:17.895Z,10.27
2023-04-11T01:28:47.578Z,9.43
2023-04-11T01:31:16.926Z,10.70
2023-04-11T01:33:46.396Z,9.67
2023-04-11T01:36:15.922Z,12.45
2023-04-11T01:38:46.714Z,10.32
2023-04-11T01:41:17.807Z,10.60
2023-04-11T01:43:47.747Z,11.05
2023-04-11T01:46:18.231Z,10.45
2023-04-11T01:48:47.752Z,10.85
2023-04-11T01:51:16.940Z,11.48
2023-04-11T01:58:48.815Z,10.85
2023-04-11T02:01:19.752Z,10.57
2023-04-11T02:03:49.199Z,9.43
2023-04-11T02:06:18.593Z,10.43
2023-04-11T02:08:49.278Z,10.45
2023-04-11T02:11:18.307Z,11.45
2023-04-11T02:13:47.764Z,10.95
2023-04-11T02:16:18.214Z,11.05
2023-04-11T02:18:47.944Z,11.60
2023-04-11T02:21:16.982Z,11.20
2023-04-11T02:23:46.313Z,11.10
2023-04-11T02:26:18.730Z,11.50
2023-04-11T02:28:48.247Z,12.27
2023-04-11T02:31:17.236Z,11.88
2023-04-11T02:33:46.621Z,13.60
2023-04-11T02:36:15.630Z,13.32
2023-04-11T02:38:44.863Z,12.50
2023-04-11T02:41:15.372Z,12.55
2023-04-11T02:43:44.659Z,12.93
2023-04-11T02:46:13.699Z,11.60
2023-04-11T02:48:46.120Z,11.25
2023-04-11T02:51:15.934Z,11.38
2023-04-11T02:53:45.297Z,10.82
2023-04-11T02:56:19.983Z,10.23
2023-04-11T02:58:53.537Z,11.13
2023-04-11T03:01:26.310Z,11.43
2023-04-11T03:03:59.240Z,11.55
2023-04-11T03:06:37.852Z,11.98
2023-04-11T03:09:07.191Z,11.63
2023-04-11T03:11:37.558Z,11.93
2023-04-11T03:14:07.743Z,13.15
2023-04-11T03:16:36.905Z,11.70
2023-04-11T03:19:08.493Z,11.48
2023-04-11T03:21:37.541Z,12.65
2023-04-11T03:24:07.753Z,13.18
2023-04-11T03:26:38.146Z,11.85
2023-04-11T03:29:12.791Z,11.70
2023-04-11T03:31:54.874Z,12.80
2023-04-11T03:34:26.143Z,13.30
2023-04-11T03:36:56.767Z,11.82
2023-04-11T03:39:27.057Z,11.93
2023-04-11T03:41:57.879Z,13.15
2023-04-11T03:44:27.744Z,12.05
2023-04-11T03:46:57.620Z,11.85
2023-04-11T03:49:32.297Z,11.07
2023-04-11T03:52:01.992Z,10.93
2023-04-11T03:54:31.914Z,11.00
2023-04-11T03:57:03.055Z,12.25
2023-04-11T03:59:35.262Z,11.38
2023-04-11T04:02:09.894Z,11.95
2023-04-11T04:04:47.166Z,11.32
2023-04-11T04:07:29.705Z,11.80
2023-04-11T04:10:10.155Z,12.00
2023-04-11T04:12:42.792Z,12.02
2023-04-11T04:15:21.648Z,11.32
2023-04-11T04:17:51.880Z,11.93
2023-04-11T04:20:44.802Z,14.40
2023-04-11T04:23:18.208Z,14.80
2023-04-11T04:26:02.342Z,13.35
2023-04-11T04:28:35.778Z,13.02
2023-04-11T04:31:08.521Z,13.05
2023-04-11T04:33:43.023Z,12.55
2023-04-11T04:36:25.117Z,12.88
2023-04-11T04:38:57.605Z,12.82
2023-04-11T04:41:36.326Z,12.77
2023-04-11T04:44:09.983Z,14.20
2023-04-11T04:46:44.575Z,12.98
2023-04-11T04:49:13.600Z,13.00
2023-04-11T04:51:42.916Z,12.30
2023-04-11T04:54:11.972Z,12.43
2023-04-11T04:56:41.618Z,13.68
2023-04-11T04:59:15.743Z,13.30
2023-04-11T05:01:51.800Z,12.40
2023-04-11T05:04:26.972Z,14.05
2023-04-11T05:07:00.150Z,13.73
2023-04-11T05:09:30.969Z,14.70
2023-04-11T05:12:10.900Z,15.05
2023-04-11T05:14:43.686Z,14.70
2023-04-11T05:17:13.221Z,16.08
2023-04-11T05:19:42.290Z,15.93
2023-04-11T05:22:12.699Z,16.02
2023-04-11T05:24:46.972Z,16.25
2023-04-11T05:27:16.367Z,16.93
2023-04-11T05:29:47.706Z,16.92
2023-04-11T05:32:19.631Z,16.73
2023-04-11T05:34:58.730Z,17.30
2023-04-11T05:37:37.744Z,17.48
2023-04-11T05:40:09.105Z,17.67
2023-04-11T05:42:38.444Z,17.83
2023-04-11T05:45:10.195Z,18.15
2023-04-11T05:47:39.610Z,17.65
2023-04-11T05:50:09.692Z,18.90
2023-04-11T05:52:38.997Z,18.02
2023-04-11T05:55:09.215Z,19.42
2023-04-11T05:57:38.622Z,19.13
2023-04-11T06:00:14.239Z,19.63
2023-04-11T06:02:44.698Z,20.48
2023-04-11T06:05:16.596Z,20.02
2023-04-11T06:07:46.532Z,19.88
2023-04-11T06:10:15.833Z,19.45
2023-04-11T06:12:45.121Z,19.00
2023-04-11T06:15:16.180Z,19.95
2023-04-11T06:17:46.263Z,20.95
2023-04-11T06:20:15.594Z,20.92
2023-04-11T06:22:46.921Z,21.35
2023-04-11T06:25:16.017Z,21.80
2023-04-11T06:27:45.459Z,22.17
2023-04-11T06:30:16.576Z,21.92
2023-04-11T06:32:45.966Z,22.83
2023-04-11T06:35:15.005Z,20.70
2023-04-11T06:37:46.070Z,21.07
2023-04-11T06:40:17.244Z,21.42
2023-04-11T06:42:46.765Z,20.67
2023-04-11T06:45:17.774Z,20.35
2023-04-11T06:47:47.228Z,20.65
2023-04-11T06:50:16.356Z,21.50
2023-04-11T06:52:47.030Z,20.98
2023-04-11T06:55:16.183Z,22.90
2023-04-11T06:57:45.923Z,22.03
2023-04-11T07:00:17.326Z,20.93
2023-04-11T07:02:46.927Z,20.02
2023-04-11T07:05:16.956Z,20.83
2023-04-11T07:07:46.230Z,21.10
2023-04-11T07:10:15.252Z,18.95
2023-04-11T07:12:44.597Z,18.35
2023-04-11T07:15:13.670Z,19.45
2023-04-11T07:17:44.373Z,19.00
2023-04-11T07:20:14.082Z,18.90
2023-04-11T07:22:43.965Z,18.67
2023-04-11T07:25:13.438Z,18.75
2023-04-11T07:27:43.921Z,18.52
2023-04-11T07:30:15.789Z,17.23
2023-04-11T07:32:47.260Z,17.08
2023-04-11T07:35:17.041Z,17.63
2023-04-11T07:40:20.974Z,17.85
2023-04-11T07:42:51.072Z,15.82
2023-04-11T07:45:21.537Z,16.70
2023-04-11T07:47:52.968Z,16.27
2023-04-11T07:50:22.999Z,14.55
2023-04-11T07:52:52.955Z,14.57
2023-04-11T07:55:22.706Z,15.23
2023-04-11T07:57:54.855Z,13.85
2023-04-11T08:00:25.323Z,14.30
2023-04-11T08:02:59.783Z,14.25
2023-04-11T08:05:29.934Z,14.32
2023-04-11T08:10:29.670Z,14.43
2023-04-11T08:13:00.024Z,14.50
2023-04-11T08:18:00.740Z,12.90
2023-04-11T08:20:30.960Z,13.50
2023-04-11T08:25:36.799Z,11.02
2023-04-11T08:28:07.285Z,11.05
2023-04-11T08:33:07.275Z,10.70
2023-04-11T08:35:37.040Z,11.13
2023-04-11T08:38:06.304Z,9.55
2023-04-11T08:40:35.623Z,9.35
2023-04-11T08:43:10.132Z,10.00
2023-04-11T08:45:39.362Z,10.38
2023-04-11T08:48:12.330Z,10.20
2023-04-11T08:50:42.506Z,8.95
2023-04-11T08:55:48.553Z,8.45
2023-04-11T08:58:17.978Z,7.07
2023-04-11T09:00:47.343Z,7.03
2023-04-11T09:03:19.072Z,6.15
2023-04-11T09:05:48.564Z,6.75
2023-04-11T09:08:19.191Z,6.45
2023-04-11T09:10:48.352Z,6.13
2023-04-11T09:13:22.653Z,5.85
2023-04-11T09:16:06.281Z,6.47
2023-04-11T09:18:38.769Z,7.10
2023-04-11T09:21:09.140Z,6.13
2023-04-11T09:23:39.388Z,6.13
2023-04-11T09:28:45.119Z,6.95
2023-04-11T09:31:14.325Z,6.80
2023-04-11T09:33:55.155Z,6.80
2023-04-11T09:36:27.208Z,7.15
2023-04-11T09:38:57.231Z,7.07
2023-04-11T09:41:33.441Z,7.20
2023-04-11T09:44:03.428Z,6.88
2023-04-11T09:46:32.525Z,7.20
2023-04-11T09:49:03.795Z,7.47
2023-04-11T09:51:37.060Z,6.65
2023-04-11T09:54:07.295Z,6.43
2023-04-11T09:56:36.447Z,6.78
2023-04-11T09:59:06.003Z,7.28
2023-04-11T10:01:35.041Z,6.77
2023-04-11T10:04:05.907Z,7.15
2023-04-11T10:06:41.989Z,7.60
2023-04-11T10:09:13.557Z,7.18
2023-04-11T10:11:44.042Z,8.15
2023-04-11T10:14:43.752Z,7.30
2023-04-11T10:17:21.201Z,6.90
2023-04-11T10:19:57.365Z,7.07
2023-04-11T10:22:59.553Z,6.57
2023-04-11T10:25:29.672Z,6.57
2023-04-11T10:28:02.410Z,6.22
2023-04-11T10:31:04.070Z,5.97
2023-04-11T10:33:33.998Z,5.53
2023-04-11T10:38:49.237Z,5.45
2023-04-11T10:41:36.790Z,5.90
2023-04-11T10:44:20.828Z,6.28
2023-04-11T10:46:53.806Z,6.10
2023-04-11T10:49:37.946Z,5.55
2023-04-11T10:52:24.831Z,5.70
2023-04-11T10:54:55.195Z,6.60
2023-04-11T10:57:24.514Z,6.70
2023-04-11T11:00:00.857Z,6.95
2023-04-11T11:02:40.862Z,5.72
2023-04-11T11:07:54.258Z,5.53
2023-04-11T11:10:40.001Z,6.35
2023-04-11T11:13:09.651Z,6.47
2023-04-11T11:15:39.108Z,6.90
2023-04-11T11:18:10.351Z,7.00
2023-04-11T11:20:40.559Z,7.03
2023-04-11T11:23:12.325Z,5.88
2023-04-11T11:25:41.349Z,5.90
2023-04-11T11:28:11.512Z,6.53
2023-04-11T11:30:54.836Z,5.97
2023-04-11T11:33:27.477Z,7.00
2023-04-11T11:35:58.517Z,6.28
2023-04-11T11:38:31.871Z,6.38
2023-04-11T11:41:01.602Z,5.88
2023-04-11T11:46:15.177Z,5.90
2023-04-11T11:49:00.117Z,5.20
2023-04-11T11:51:40.422Z,5.57
2023-04-11T11:54:12.681Z,5.80
2023-04-11T11:56:42.562Z,6.40
2023-04-11T12:01:43.923Z,5.45
2023-04-11T12:04:13.449Z,5.38
2023-04-11T12:06:45.969Z,5.77
2023-04-11T12:09:17.157Z,5.40
2023-04-11T12:11:46.262Z,5.65
2023-04-11T12:14:24.696Z,5.97
2023-04-11T12:16:55.674Z,5.97
2023-04-11T12:19:25.631Z,6.05
2023-04-11T12:21:54.627Z,5.97
2023-04-11T12:24:25.452Z,5.70
2023-04-11T12:29:43.757Z,6.33
2023-04-11T12:32:12.735Z,5.60
2023-04-11T12:34:41.991Z,5.80
2023-04-11T12:37:11.087Z,5.70
2023-04-11T12:39:42.344Z,5.30
2023-04-11T12:42:11.848Z,6.05
2023-04-11T12:44:41.404Z,5.75
2023-04-11T12:47:10.402Z,6.07
2023-04-11T12:49:40.032Z,5.63
2023-04-11T12:52:09.347Z,6.40
2023-04-11T12:54:40.270Z,5.80
2023-04-11T12:57:09.308Z,5.95
2023-04-11T12:59:38.808Z,5.60
2023-04-11T13:02:08.537Z,5.30
2023-04-11T13:07:07.096Z,5.50
2023-04-11T13:09:37.064Z,5.47
2023-04-11T13:12:08.137Z,5.00
2023-04-11T13:14:37.790Z,5.32
2023-04-11T13:17:06.787Z,5.53
2023-04-11T13:19:36.466Z,5.75
2023-04-11T13:22:05.567Z,5.32
2023-04-11T13:24:35.015Z,5.57
2023-04-11T13:27:04.151Z,5.57
2023-04-11T13:29:35.597Z,5.57
2023-04-11T13:32:04.811Z,5.82
2023-04-11T13:34:34.167Z,5.90
2023-04-11T13:37:03.776Z,5.85
2023-04-11T13:39:33.508Z,5.50
2023-04-11T13:42:02.588Z,5.55
2023-04-11T13:44:33.360Z,6.00
2023-04-11T13:47:03.713Z,5.57
2023-04-11T13:49:33.241Z,5.97
2023-04-11T13:52:02.262Z,5.50
2023-04-11T13:54:31.552Z,5.83
2023-04-11T13:57:01.143Z,5.65
2023-04-11T13:59:30.567Z,5.32
2023-04-11T14:02:01.428Z,5.32
2023-04-11T14:04:31.011Z,4.80
2023-04-11T14:07:00.121Z,4.77
2023-04-11T14:09:29.976Z,5.20
2023-04-11T14:11:59.966Z,4.90
2023-04-11T14:14:29.392Z,4.97
2023-04-11T14:16:58.373Z,4.95
2023-04-11T14:19:29.478Z,5.18
2023-04-11T14:21:58.921Z,4.70
2023-04-11T14:24:29.553Z,5.30
2023-04-11T14:26:58.625Z,5.03
2023-04-11T14:29:29.895Z,5.47
2023-04-11T14:32:00.263Z,5.18
2023-04-11T14:34:31.940Z,4.85
2023-04-11T14:37:01.037Z,5.22
2023-04-11T14:39:30.506Z,4.80
2023-04-11T14:42:02.165Z,4.87
2023-04-11T14:44:31.604Z,4.68
2023-04-11T14:47:00.620Z,4.50
2023-04-11T14:49:31.669Z,4.30
2023-04-11T14:52:01.341Z,4.32
2023-04-11T14:54:30.888Z,4.40
2023-04-11T14:57:00.729Z,4.20
2023-04-11T14:59:30.863Z,4.30
2023-04-11T15:02:00.087Z,4.30
2023-04-11T15:04:31.044Z,4.55
2023-04-11T15:07:00.287Z,4.00
2023-04-11T15:09:29.575Z,4.60
2023-04-11T15:11:58.610Z,3.95
2023-04-11T15:14:29.573Z,4.03
2023-04-11T15:16:58.785Z,4.25
2023-04-11T15:19:28.426Z,4.35
2023-04-11T15:21:59.102Z,5.95
2023-04-11T15:24:28.467Z,4.03
2023-04-11T15:26:57.712Z,3.90
2023-04-11T15:29:27.050Z,3.67
2023-04-11T15:31:56.107Z,3.75
2023-04-11T15:34:26.561Z,3.80
2023-04-11T15:39:27.650Z,5.47
2023-04-11T15:41:57.145Z,5.45
2023-04-11T15:44:26.660Z,4.75
2023-04-11T15:46:55.717Z,4.70
2023-04-11T15:49:25.037Z,4.38
2023-04-11T15:51:54.121Z,5.25
2023-04-11T15:54:23.409Z,3.97
2023-04-11T15:56:53.820Z,3.95
2023-04-11T15:59:25.014Z,3.78
2023-04-11T16:01:54.094Z,4.30
2023-04-11T16:04:23.863Z,3.70
2023-04-11T16:06:53.444Z,3.80
2023-04-11T16:09:23.015Z,4.00
2023-04-11T16:11:53.662Z,3.70
2023-04-11T16:14:22.969Z,4.00
2023-04-11T16:16:53.003Z,4.00
2023-04-11T16:19:22.460Z,4.50
2023-04-11T16:21:51.543Z,3.83
2023-04-11T16:24:21.045Z,4.60
2023-04-11T16:26:50.070Z,4.22
2023-04-11T16:29:20.809Z,4.38
2023-04-11T16:31:49.937Z,4.60
2023-04-11T16:34:19.256Z,4.18
2023-04-11T16:36:48.465Z,3.97
2023-04-11T16:39:17.775Z,4.47
2023-04-11T16:41:47.451Z,4.00
2023-04-11T16:44:18.240Z,4.45
2023-04-11T16:46:48.620Z,4.72
2023-04-11T16:49:19.053Z,4.75
2023-04-11T16:51:48.039Z,5.00
2023-04-11T16:54:17.477Z,5.83
2023-04-11T16:56:47.435Z,6.60
2023-04-11T17:01:48.022Z,6.03
2023-04-11T17:04:18.206Z,6.32
2023-04-11T17:06:47.418Z,6.40
2023-04-11T17:09:16.704Z,7.88
2023-04-11T17:11:45.728Z,6.90
2023-04-11T17:14:15.317Z,7.43
2023-04-11T17:16:46.107Z,9.43
2023-04-11T17:19:17.030Z,6.55
2023-04-11T17:21:46.130Z,6.47
2023-04-11T17:24:15.876Z,9.73
2023-04-11T17:26:45.054Z,5.95
2023-04-11T17:29:14.810Z,7.15
2023-04-11T17:31:43.844Z,5.25
2023-04-11T17:34:13.100Z,6.07
2023-04-11T17:36:43.620Z,5.57
2023-04-11T17:39:17.839Z,5.75
2023-04-11T17:41:47.312Z,11.50
2023-04-11T17:44:16.675Z,10.32
2023-04-11T17:46:46.177Z,8.90
2023-04-11T17:49:16.412Z,10.70
2023-04-11T17:51:58.171Z,9.15
2023-04-11T17:54:29.349Z,10.75
2023-04-11T17:56:58.690Z,7.97
2023-04-11T17:59:28.308Z,7.15
2023-04-11T18:01:57.571Z,7.35
2023-04-11T18:04:27.140Z,5.50
2023-04-11T18:06:58.308Z,6.30
2023-04-11T18:09:31.861Z,6.72
2023-04-11T18:12:00.976Z,6.50
2023-04-11T18:14:30.281Z,7.85
2023-04-11T18:16:59.310Z,8.45
2023-04-11T18:19:28.600Z,8.40
2023-04-11T18:21:59.012Z,7.80
2023-04-11T18:24:28.355Z,6.15
2023-04-11T18:26:57.337Z,7.03
2023-04-11T18:29:26.622Z,7.43
2023-04-11T18:32:19.467Z,8.27
2023-04-11T18:34:45.358Z,10.98
2023-04-11T18:37:15.741Z,9.82
2023-04-11T18:39:45.210Z,10.35
2023-04-11T18:42:14.213Z,12.85
2023-04-11T18:44:44.485Z,12.00
2023-04-11T18:47:16.973Z,13.05
2023-04-11T18:49:47.154Z,11.98
2023-04-11T18:52:17.816Z,10.75
2023-04-11T18:54:47.136Z,10.82
2023-04-11T18:57:16.258Z,10.80
2023-04-11T18:59:48.942Z,11.80
2023-04-11T19:02:19.736Z,12.90
2023-04-11T19:04:49.541Z,14.07
2023-04-11T19:07:20.074Z,13.13
2023-04-11T19:09:49.650Z,11.77
2023-04-11T19:12:19.232Z,10.95
2023-04-11T19:14:48.794Z,10.65
2023-04-11T19:17:17.804Z,11.57
2023-04-11T19:19:47.363Z,13.02
2023-04-11T19:22:16.561Z,12.20
2023-04-11T19:24:49.062Z,10.75
2023-04-11T19:27:18.524Z,11.20
2023-04-11T19:29:47.771Z,11.10
2023-04-11T19:32:17.699Z,9.75
2023-04-11T19:34:47.883Z,10.75
2023-04-11T19:37:19.348Z,11.77
2023-04-11T19:39:50.197Z,13.57
2023-04-11T19:42:19.197Z,12.55
2023-04-11T19:44:48.648Z,10.77
2023-04-11T19:47:19.514Z,10.32
2023-04-11T19:49:49.703Z,9.43
2023-04-11T19:52:18.783Z,9.60
2023-04-11T19:54:49.466Z,11.80
2023-04-11T19:57:18.518Z,39.35
2023-04-11T19:59:47.868Z,23.57
2023-04-11T20:02:16.888Z,14.82
2023-04-11T20:04:46.727Z,11.82
2023-04-11T20:07:15.770Z,7.90
2023-04-11T20:09:45.086Z,9.07
2023-04-11T20:12:15.766Z,7.97
2023-04-11T20:14:45.073Z,7.28
2023-04-11T20:17:14.089Z,6.53
2023-04-11T20:19:44.966Z,5.97
2023-04-11T20:22:18.355Z,6.22
2023-04-11T20:24:47.753Z,5.80
2023-04-11T20:27:18.150Z,5.20
2023-04-11T20:29:47.493Z,5.70
2023-04-11T20:32:16.478Z,5.55
2023-04-11T20:34:46.125Z,4.30
2023-04-11T20:37:17.072Z,4.73
2023-04-11T20:39:48.205Z,4.30
2023-04-11T20:42:20.582Z,4.75
2023-04-11T20:44:51.119Z,4.70
2023-04-11T20:47:20.229Z,3.72
2023-04-11T20:49:49.703Z,3.50
2023-04-11T20:52:18.799Z,3.53
2023-04-11T20:54:48.162Z,3.60
2023-04-11T20:57:18.535Z,3.42
2023-04-11T20:59:50.511Z,3.30
2023-04-11T21:02:19.760Z,3.33
2023-04-11T21:04:51.740Z,3.50
2023-04-11T21:07:21.521Z,3.45
2023-04-11T21:09:51.866Z,3.33
2023-04-11T21:12:22.301Z,3.00
2023-04-11T21:14:51.707Z,3.00
2023-04-11T21:17:21.615Z,3.97
2023-04-11T21:22:19.777Z,3.08
2023-04-11T21:24:49.138Z,3.20
2023-04-11T21:27:18.121Z,3.42
2023-04-11T21:29:48.945Z,3.75
2023-04-11T21:32:17.976Z,3.70
2023-04-11T21:34:47.282Z,3.57
2023-04-11T21:37:16.383Z,2.90
2023-04-11T21:39:45.667Z,3.00
2023-04-11T21:42:14.657Z,2.58
2023-04-11T21:44:43.993Z,3.00
2023-04-11T21:47:14.428Z,2.70
2023-04-11T21:49:43.778Z,2.97
2023-04-11T21:52:12.793Z,2.80
2023-04-11T21:54:44.816Z,2.50
2023-04-11T21:57:14.000Z,2.28
2023-04-11T21:59:43.266Z,2.40
2023-04-11T22:02:13.821Z,2.55
2023-04-11T22:05:01.176Z,2.80
2023-04-11T22:07:38.482Z,2.57
2023-04-11T22:10:12.102Z,2.88
2023-04-11T22:12:41.794Z,2.90
2023-04-11T22:15:12.942Z,3.53
2023-04-11T22:17:46.247Z,3.35
2023-04-11T22:20:16.667Z,2.95
2023-04-11T22:22:46.127Z,2.83
2023-04-11T22:25:18.265Z,3.60
2023-04-11T22:27:47.319Z,3.60
2023-04-11T22:30:16.822Z,2.83
2023-04-11T22:32:47.377Z,3.15
2023-04-11T22:35:16.824Z,3.13
2023-04-11T22:37:45.831Z,3.13
2023-04-11T22:40:22.056Z,3.07
2023-04-11T22:42:52.045Z,3.10
2023-04-11T22:47:54.613Z,4.35
2023-04-11T22:50:24.135Z,3.92
2023-04-11T22:52:54.837Z,4.47
2023-04-11T22:55:25.074Z,4.38
2023-04-11T22:57:54.153Z,4.00
2023-04-11T23:00:24.217Z,3.92
2023-04-11T23:02:56.904Z,4.32
2023-04-11T23:05:26.323Z,3.95
2023-04-11T23:07:55.506Z,4.25
2023-04-11T23:10:25.309Z,4.60
2023-04-11T23:12:54.321Z,4.30
2023-04-11T23:15:23.564Z,4.43
2023-04-11T23:17:54.026Z,4.90
2023-04-11T23:20:23.591Z,5.43
2023-04-11T23:22:52.541Z,5.70
2023-04-11T23:25:22.251Z,4.73
2023-04-11T23:27:51.334Z,7.05
2023-04-11T23:30:20.585Z,6.20
2023-04-11T23:32:49.653Z,5.13
2023-04-11T23:35:21.106Z,4.70
2023-04-11T23:37:50.985Z,5.47
2023-04-11T23:40:20.369Z,4.55
2023-04-11T23:42:49.329Z,4.10
2023-04-11T23:45:22.557Z,3.97
2023-04-11T23:47:52.270Z,4.35
2023-04-11T23:50:23.431Z,4.93
2023-04-11T23:52:53.814Z,4.88
2023-04-11T23:55:23.593Z,5.50
2023-04-11T23:57:52.613Z,5.78
